sensor_id;sensor_type;location;lat;lon;timestamp;P1;durP1;ratioP1;P2;durP2;ratioP2
4521;SDS011;2273;48.464;11.926;2022-09-09T00:00:36;2.97;;;2.60;;
4521;SDS011;2273;48.464;11.926;2022-09-09T00:05:37;5.80;;;2.47;;
4521;SDS011;2273;48.464;11.926;2022-09-09T00:08:07;4.63;;;2.63;;
4521;SDS011;2273;48.464;11.926;2022-09-09T00:10:50;3.60;;;2.73;;
4521;SDS011;2273;48.464;11.926;2022-09-09T00:19:02;3.20;;;2.80;;
4521;SDS011;2273;48.464;11.926;2022-09-09T00:21:52;4.97;;;2.77;;
4521;SDS011;2273;48.464;11.926;2022-09-09T00:26:55;4.10;;;3.20;;
4521;SDS011;2273;48.464;11.926;2022-09-09T00:29:31;4.03;;;3.00;;
4521;SDS011;2273;48.464;11.926;2022-09-09T00:32:04;3.27;;;2.60;;
4521;SDS011;2273;48.464;11.926;2022-09-09T00:34:36;5.57;;;3.07;;
4521;SDS011;2273;48.464;11.926;2022-09-09T00:37:13;3.57;;;3.00;;
4521;SDS011;2273;48.464;11.926;2022-09-09T00:39:41;8.07;;;3.13;;
4521;SDS011;2273;48.464;11.926;2022-09-09T00:42:24;4.03;;;3.07;;
4521;SDS011;2273;48.464;11.926;2022-09-09T00:44:52;5.00;;;2.60;;
4521;SDS011;2273;48.464;11.926;2022-09-09T00:50:29;3.60;;;2.90;;
4521;SDS011;2273;48.464;11.926;2022-09-09T00:56:01;8.17;;;3.30;;
4521;SDS011;2273;48.464;11.926;2022-09-09T00:58:42;4.10;;;3.50;;
4521;SDS011;2273;48.464;11.926;2022-09-09T01:01:09;6.53;;;3.73;;
4521;SDS011;2273;48.464;11.926;2022-09-09T01:03:37;3.40;;;3.10;;
4521;SDS011;2273;48.464;11.926;2022-09-09T01:06:30;6.30;;;3.07;;
4521;SDS011;2273;48.464;11.926;2022-09-09T01:11:26;10.23;;;3.80;;
4521;SDS011;2273;48.464;11.926;2022-09-09T01:16:53;6.70;;;2.87;;
4521;SDS011;2273;48.464;11.926;2022-09-09T01:19:24;4.50;;;3.20;;
4521;SDS011;2273;48.464;11.926;2022-09-09T01:25:10;12.10;;;3.50;;
4521;SDS011;2273;48.464;11.926;2022-09-09T01:27:59;6.63;;;2.70;;
4521;SDS011;2273;48.464;11.926;2022-09-09T01:30:27;4.20;;;2.90;;
4521;SDS011;2273;48.464;11.926;2022-09-09T01:32:55;6.20;;;3.40;;
4521;SDS011;2273;48.464;11.926;2022-09-09T01:35:33;5.43;;;2.60;;
4521;SDS011;2273;48.464;11.926;2022-09-09T01:38:03;7.03;;;2.97;;
4521;SDS011;2273;48.464;11.926;2022-09-09T01:40:29;4.30;;;2.90;;
4521;SDS011;2273;48.464;11.926;2022-09-09T01:42:56;4.30;;;3.07;;
4521;SDS011;2273;48.464;11.926;2022-09-09T01:45:22;3.80;;;3.00;;
4521;SDS011;2273;48.464;11.926;2022-09-09T01:47:48;5.70;;;3.00;;
4521;SDS011;2273;48.464;11.926;2022-09-09T01:50:24;3.90;;;3.33;;
4521;SDS011;2273;48.464;11.926;2022-09-09T01:52:51;3.50;;;3.20;;
4521;SDS011;2273;48.464;11.926;2022-09-09T01:55:33;4.30;;;3.37;;
4521;SDS011;2273;48.464;11.926;2022-09-09T01:58:10;5.17;;;3.70;;
4521;SDS011;2273;48.464;11.926;2022-09-09T02:00:51;7.73;;;3.40;;
4521;SDS011;2273;48.464;11.926;2022-09-09T02:03:32;3.33;;;2.80;;
4521;SDS011;2273;48.464;11.926;2022-09-09T02:06:21;5.97;;;3.03;;
4521;SDS011;2273;48.464;11.926;2022-09-09T02:08:56;6.87;;;3.00;;
4521;SDS011;2273;48.464;11.926;2022-09-09T02:11:24;10.97;;;3.33;;
4521;SDS011;2273;48.464;11.926;2022-09-09T02:14:05;4.77;;;3.63;;
4521;SDS011;2273;48.464;11.926;2022-09-09T02:16:44;8.20;;;3.23;;
4521;SDS011;2273;48.464;11.926;2022-09-09T02:19:14;8.23;;;3.50;;
4521;SDS011;2273;48.464;11.926;2022-09-09T02:21:59;7.10;;;2.83;;
4521;SDS011;2273;48.464;11.926;2022-09-09T02:24:26;6.60;;;3.13;;
4521;SDS011;2273;48.464;11.926;2022-09-09T02:27:05;11.00;;;2.70;;
4521;SDS011;2273;48.464;11.926;2022-09-09T02:29:38;4.17;;;2.80;;
4521;SDS011;2273;48.464;11.926;2022-09-09T02:32:08;5.90;;;2.80;;
4521;SDS011;2273;48.464;11.926;2022-09-09T02:34:40;3.00;;;2.60;;
4521;SDS011;2273;48.464;11.926;2022-09-09T02:37:12;9.90;;;2.73;;
4521;SDS011;2273;48.464;11.926;2022-09-09T02:39:42;3.00;;;2.70;;
4521;SDS011;2273;48.464;11.926;2022-09-09T02:42:11;6.63;;;3.30;;
4521;SDS011;2273;48.464;11.926;2022-09-09T02:44:41;6.17;;;2.80;;
4521;SDS011;2273;48.464;11.926;2022-09-09T02:47:12;5.63;;;3.17;;
4521;SDS011;2273;48.464;11.926;2022-09-09T02:49:59;11.43;;;2.77;;
4521;SDS011;2273;48.464;11.926;2022-09-09T02:55:50;3.60;;;2.80;;
4521;SDS011;2273;48.464;11.926;2022-09-09T02:58:16;11.70;;;3.40;;
4521;SDS011;2273;48.464;11.926;2022-09-09T03:00:50;4.03;;;3.50;;
4521;SDS011;2273;48.464;11.926;2022-09-09T03:03:17;4.03;;;2.87;;
4521;SDS011;2273;48.464;11.926;2022-09-09T03:05:46;5.43;;;3.47;;
4521;SDS011;2273;48.464;11.926;2022-09-09T03:08:12;4.27;;;2.87;;
4521;SDS011;2273;48.464;11.926;2022-09-09T03:10:38;7.90;;;3.50;;
4521;SDS011;2273;48.464;11.926;2022-09-09T03:13:05;4.87;;;3.03;;
4521;SDS011;2273;48.464;11.926;2022-09-09T03:15:34;11.43;;;2.93;;
4521;SDS011;2273;48.464;11.926;2022-09-09T03:18:00;9.77;;;3.87;;
4521;SDS011;2273;48.464;11.926;2022-09-09T03:20:27;4.07;;;3.20;;
4521;SDS011;2273;48.464;11.926;2022-09-09T03:22:53;5.97;;;3.90;;
4521;SDS011;2273;48.464;11.926;2022-09-09T03:25:19;9.93;;;3.10;;
4521;SDS011;2273;48.464;11.926;2022-09-09T03:27:45;6.10;;;3.53;;
4521;SDS011;2273;48.464;11.926;2022-09-09T03:30:11;4.63;;;3.50;;
4521;SDS011;2273;48.464;11.926;2022-09-09T03:32:37;4.40;;;3.43;;
4521;SDS011;2273;48.464;11.926;2022-09-09T03:35:03;16.77;;;4.50;;
4521;SDS011;2273;48.464;11.926;2022-09-09T03:37:29;6.70;;;3.90;;
4521;SDS011;2273;48.464;11.926;2022-09-09T03:39:55;6.07;;;3.77;;
4521;SDS011;2273;48.464;11.926;2022-09-09T03:42:21;5.77;;;3.03;;
4521;SDS011;2273;48.464;11.926;2022-09-09T03:44:50;4.17;;;3.10;;
4521;SDS011;2273;48.464;11.926;2022-09-09T03:47:17;17.03;;;3.40;;
4521;SDS011;2273;48.464;11.926;2022-09-09T03:49:45;5.33;;;2.53;;
4521;SDS011;2273;48.464;11.926;2022-09-09T03:52:11;5.40;;;2.50;;
4521;SDS011;2273;48.464;11.926;2022-09-09T03:54:37;8.43;;;3.20;;
4521;SDS011;2273;48.464;11.926;2022-09-09T03:57:04;6.97;;;2.93;;
4521;SDS011;2273;48.464;11.926;2022-09-09T03:59:30;4.70;;;2.67;;
4521;SDS011;2273;48.464;11.926;2022-09-09T04:01:55;8.70;;;3.10;;
4521;SDS011;2273;48.464;11.926;2022-09-09T04:04:22;7.23;;;2.70;;
4521;SDS011;2273;48.464;11.926;2022-09-09T04:06:47;5.20;;;2.83;;
4521;SDS011;2273;48.464;11.926;2022-09-09T04:09:13;4.97;;;2.83;;
4521;SDS011;2273;48.464;11.926;2022-09-09T04:11:41;9.63;;;2.70;;
4521;SDS011;2273;48.464;11.926;2022-09-09T04:14:07;5.73;;;3.30;;
4521;SDS011;2273;48.464;11.926;2022-09-09T04:16:33;6.70;;;3.77;;
4521;SDS011;2273;48.464;11.926;2022-09-09T04:19:01;3.30;;;3.00;;
4521;SDS011;2273;48.464;11.926;2022-09-09T04:21:29;5.37;;;3.30;;
4521;SDS011;2273;48.464;11.926;2022-09-09T04:23:55;5.10;;;3.77;;
4521;SDS011;2273;48.464;11.926;2022-09-09T04:26:21;6.93;;;3.40;;
4521;SDS011;2273;48.464;11.926;2022-09-09T04:28:47;8.13;;;3.50;;
4521;SDS011;2273;48.464;11.926;2022-09-09T04:31:17;6.13;;;3.53;;
4521;SDS011;2273;48.464;11.926;2022-09-09T04:33:47;7.73;;;3.23;;
4521;SDS011;2273;48.464;11.926;2022-09-09T04:36:13;4.00;;;2.93;;
4521;SDS011;2273;48.464;11.926;2022-09-09T04:38:39;7.30;;;3.23;;
4521;SDS011;2273;48.464;11.926;2022-09-09T04:41:05;9.63;;;3.97;;
4521;SDS011;2273;48.464;11.926;2022-09-09T04:43:33;9.00;;;5.33;;
4521;SDS011;2273;48.464;11.926;2022-09-09T04:46:01;11.97;;;4.87;;
4521;SDS011;2273;48.464;11.926;2022-09-09T04:48:27;5.27;;;4.07;;
4521;SDS011;2273;48.464;11.926;2022-09-09T04:50:56;5.57;;;4.37;;
4521;SDS011;2273;48.464;11.926;2022-09-09T04:53:23;6.70;;;4.57;;
4521;SDS011;2273;48.464;11.926;2022-09-09T04:55:51;4.43;;;3.57;;
4521;SDS011;2273;48.464;11.926;2022-09-09T04:58:29;7.50;;;3.77;;
4521;SDS011;2273;48.464;11.926;2022-09-09T05:00:54;5.27;;;3.73;;
4521;SDS011;2273;48.464;11.926;2022-09-09T05:03:20;6.03;;;4.10;;
4521;SDS011;2273;48.464;11.926;2022-09-09T05:05:46;4.03;;;3.63;;
4521;SDS011;2273;48.464;11.926;2022-09-09T05:08:12;3.70;;;3.20;;
4521;SDS011;2273;48.464;11.926;2022-09-09T05:10:38;8.37;;;4.40;;
4521;SDS011;2273;48.464;11.926;2022-09-09T05:13:05;6.63;;;4.07;;
4521;SDS011;2273;48.464;11.926;2022-09-09T05:15:31;6.83;;;3.40;;
4521;SDS011;2273;48.464;11.926;2022-09-09T05:17:58;8.93;;;5.07;;
4521;SDS011;2273;48.464;11.926;2022-09-09T05:20:25;5.50;;;4.33;;
4521;SDS011;2273;48.464;11.926;2022-09-09T05:22:54;10.30;;;4.30;;
4521;SDS011;2273;48.464;11.926;2022-09-09T05:25:21;5.80;;;4.00;;
4521;SDS011;2273;48.464;11.926;2022-09-09T05:27:48;6.80;;;4.30;;
4521;SDS011;2273;48.464;11.926;2022-09-09T05:30:14;7.17;;;4.07;;
4521;SDS011;2273;48.464;11.926;2022-09-09T05:32:40;5.70;;;4.30;;
4521;SDS011;2273;48.464;11.926;2022-09-09T05:35:06;4.20;;;3.50;;
4521;SDS011;2273;48.464;11.926;2022-09-09T05:37:32;4.77;;;3.70;;
4521;SDS011;2273;48.464;11.926;2022-09-09T05:39:58;6.67;;;4.10;;
4521;SDS011;2273;48.464;11.926;2022-09-09T05:42:23;4.80;;;3.93;;
4521;SDS011;2273;48.464;11.926;2022-09-09T05:44:49;8.97;;;4.07;;
4521;SDS011;2273;48.464;11.926;2022-09-09T05:47:16;12.80;;;4.47;;
4521;SDS011;2273;48.464;11.926;2022-09-09T05:49:42;6.33;;;4.30;;
4521;SDS011;2273;48.464;11.926;2022-09-09T05:52:09;7.17;;;3.60;;
4521;SDS011;2273;48.464;11.926;2022-09-09T05:54:35;6.50;;;3.80;;
4521;SDS011;2273;48.464;11.926;2022-09-09T05:57:01;5.77;;;4.20;;
4521;SDS011;2273;48.464;11.926;2022-09-09T05:59:28;5.40;;;3.83;;
4521;SDS011;2273;48.464;11.926;2022-09-09T06:01:55;4.47;;;3.90;;
4521;SDS011;2273;48.464;11.926;2022-09-09T06:04:27;4.50;;;4.07;;
4521;SDS011;2273;48.464;11.926;2022-09-09T06:06:53;6.67;;;4.90;;
4521;SDS011;2273;48.464;11.926;2022-09-09T06:09:20;9.27;;;4.07;;
4521;SDS011;2273;48.464;11.926;2022-09-09T06:11:46;6.03;;;4.00;;
4521;SDS011;2273;48.464;11.926;2022-09-09T06:14:13;7.93;;;4.23;;
4521;SDS011;2273;48.464;11.926;2022-09-09T06:16:39;6.07;;;3.80;;
4521;SDS011;2273;48.464;11.926;2022-09-09T06:19:13;7.00;;;4.30;;
4521;SDS011;2273;48.464;11.926;2022-09-09T06:21:40;5.70;;;3.80;;
4521;SDS011;2273;48.464;11.926;2022-09-09T06:24:07;8.10;;;4.30;;
4521;SDS011;2273;48.464;11.926;2022-09-09T06:26:39;9.93;;;4.60;;
4521;SDS011;2273;48.464;11.926;2022-09-09T06:29:11;9.60;;;4.90;;
4521;SDS011;2273;48.464;11.926;2022-09-09T06:31:36;9.20;;;4.57;;
4521;SDS011;2273;48.464;11.926;2022-09-09T06:34:08;5.93;;;4.23;;
4521;SDS011;2273;48.464;11.926;2022-09-09T06:36:37;7.20;;;4.30;;
4521;SDS011;2273;48.464;11.926;2022-09-09T06:39:04;11.73;;;4.77;;
4521;SDS011;2273;48.464;11.926;2022-09-09T06:41:32;5.80;;;4.63;;
4521;SDS011;2273;48.464;11.926;2022-09-09T06:44:00;10.50;;;4.50;;
4521;SDS011;2273;48.464;11.926;2022-09-09T06:46:37;6.10;;;4.40;;
4521;SDS011;2273;48.464;11.926;2022-09-09T06:49:04;11.20;;;4.80;;
4521;SDS011;2273;48.464;11.926;2022-09-09T06:51:30;8.80;;;5.27;;
4521;SDS011;2273;48.464;11.926;2022-09-09T06:54:01;10.07;;;5.57;;
4521;SDS011;2273;48.464;11.926;2022-09-09T06:58:57;8.30;;;6.27;;
4521;SDS011;2273;48.464;11.926;2022-09-09T07:01:27;9.53;;;6.77;;
4521;SDS011;2273;48.464;11.926;2022-09-09T07:03:57;11.03;;;6.17;;
4521;SDS011;2273;48.464;11.926;2022-09-09T07:06:26;14.80;;;7.80;;
4521;SDS011;2273;48.464;11.926;2022-09-09T07:09:03;9.00;;;6.17;;
4521;SDS011;2273;48.464;11.926;2022-09-09T07:11:34;8.47;;;6.03;;
4521;SDS011;2273;48.464;11.926;2022-09-09T07:14:04;9.30;;;5.80;;
4521;SDS011;2273;48.464;11.926;2022-09-09T07:16:30;10.47;;;7.10;;
4521;SDS011;2273;48.464;11.926;2022-09-09T07:18:59;11.80;;;6.87;;
4521;SDS011;2273;48.464;11.926;2022-09-09T07:21:27;13.60;;;7.60;;
4521;SDS011;2273;48.464;11.926;2022-09-09T07:23:54;13.53;;;7.23;;
4521;SDS011;2273;48.464;11.926;2022-09-09T07:26:22;16.63;;;7.73;;
4521;SDS011;2273;48.464;11.926;2022-09-09T07:28:51;20.90;;;7.27;;
4521;SDS011;2273;48.464;11.926;2022-09-09T07:31:18;7.70;;;5.70;;
4521;SDS011;2273;48.464;11.926;2022-09-09T07:33:46;7.20;;;5.87;;
4521;SDS011;2273;48.464;11.926;2022-09-09T07:36:19;8.03;;;5.43;;
4521;SDS011;2273;48.464;11.926;2022-09-09T07:38:50;8.80;;;5.27;;
4521;SDS011;2273;48.464;11.926;2022-09-09T07:41:21;12.53;;;6.00;;
4521;SDS011;2273;48.464;11.926;2022-09-09T07:43:50;9.63;;;4.63;;
4521;SDS011;2273;48.464;11.926;2022-09-09T07:46:20;7.53;;;4.63;;
4521;SDS011;2273;48.464;11.926;2022-09-09T07:48:48;5.60;;;4.73;;
4521;SDS011;2273;48.464;11.926;2022-09-09T07:51:23;7.37;;;4.20;;
4521;SDS011;2273;48.464;11.926;2022-09-09T07:53:54;6.90;;;4.20;;
4521;SDS011;2273;48.464;11.926;2022-09-09T07:56:23;5.53;;;4.10;;
4521;SDS011;2273;48.464;11.926;2022-09-09T07:58:50;13.13;;;4.67;;
4521;SDS011;2273;48.464;11.926;2022-09-09T08:04:17;5.30;;;3.70;;
4521;SDS011;2273;48.464;11.926;2022-09-09T08:06:49;10.73;;;4.40;;
4521;SDS011;2273;48.464;11.926;2022-09-09T08:09:17;7.50;;;4.37;;
4521;SDS011;2273;48.464;11.926;2022-09-09T08:11:45;4.10;;;3.40;;
4521;SDS011;2273;48.464;11.926;2022-09-09T08:14:11;4.90;;;3.60;;
4521;SDS011;2273;48.464;11.926;2022-09-09T08:16:38;8.30;;;4.40;;
4521;SDS011;2273;48.464;11.926;2022-09-09T08:19:09;7.60;;;4.13;;
4521;SDS011;2273;48.464;11.926;2022-09-09T08:21:36;14.13;;;4.10;;
4521;SDS011;2273;48.464;11.926;2022-09-09T08:24:04;5.73;;;3.50;;
4521;SDS011;2273;48.464;11.926;2022-09-09T08:26:35;10.70;;;3.67;;
4521;SDS011;2273;48.464;11.926;2022-09-09T08:29:03;6.87;;;4.10;;
4521;SDS011;2273;48.464;11.926;2022-09-09T08:31:31;14.70;;;4.10;;
4521;SDS011;2273;48.464;11.926;2022-09-09T08:33:59;7.37;;;3.77;;
4521;SDS011;2273;48.464;11.926;2022-09-09T08:36:27;18.50;;;4.57;;
4521;SDS011;2273;48.464;11.926;2022-09-09T08:38:55;4.73;;;3.80;;
4521;SDS011;2273;48.464;11.926;2022-09-09T08:53:00;9.83;;;3.57;;
4521;SDS011;2273;48.464;11.926;2022-09-09T08:55:35;6.60;;;3.53;;
4521;SDS011;2273;48.464;11.926;2022-09-09T08:58:13;7.20;;;3.00;;
4521;SDS011;2273;48.464;11.926;2022-09-09T09:01:05;5.77;;;3.47;;
4521;SDS011;2273;48.464;11.926;2022-09-09T09:12:01;7.83;;;3.00;;
4521;SDS011;2273;48.464;11.926;2022-09-09T09:14:34;4.50;;;2.70;;
4521;SDS011;2273;48.464;11.926;2022-09-09T09:17:04;4.80;;;2.40;;
4521;SDS011;2273;48.464;11.926;2022-09-09T09:19:32;6.93;;;3.10;;
4521;SDS011;2273;48.464;11.926;2022-09-09T09:25:17;5.63;;;3.40;;
4521;SDS011;2273;48.464;11.926;2022-09-09T09:31:03;6.13;;;3.60;;
4521;SDS011;2273;48.464;11.926;2022-09-09T09:33:47;9.20;;;4.30;;
4521;SDS011;2273;48.464;11.926;2022-09-09T09:36:17;5.10;;;4.00;;
4521;SDS011;2273;48.464;11.926;2022-09-09T09:38:57;6.80;;;3.53;;
4521;SDS011;2273;48.464;11.926;2022-09-09T09:41:32;6.57;;;4.20;;
4521;SDS011;2273;48.464;11.926;2022-09-09T09:44:01;5.90;;;4.30;;
4521;SDS011;2273;48.464;11.926;2022-09-09T09:46:28;5.67;;;4.00;;
4521;SDS011;2273;48.464;11.926;2022-09-09T09:49:03;6.50;;;3.90;;
4521;SDS011;2273;48.464;11.926;2022-09-09T09:51:34;5.47;;;3.80;;
4521;SDS011;2273;48.464;11.926;2022-09-09T09:54:15;8.73;;;4.20;;
4521;SDS011;2273;48.464;11.926;2022-09-09T09:56:49;8.67;;;4.20;;
4521;SDS011;2273;48.464;11.926;2022-09-09T10:04:47;7.60;;;3.77;;
4521;SDS011;2273;48.464;11.926;2022-09-09T10:07:18;8.37;;;4.87;;
4521;SDS011;2273;48.464;11.926;2022-09-09T10:09:45;5.80;;;4.00;;
4521;SDS011;2273;48.464;11.926;2022-09-09T10:12:19;5.87;;;3.90;;
4521;SDS011;2273;48.464;11.926;2022-09-09T10:14:57;5.23;;;4.47;;
4521;SDS011;2273;48.464;11.926;2022-09-09T10:17:34;7.10;;;4.57;;
4521;SDS011;2273;48.464;11.926;2022-09-09T10:22:43;8.83;;;3.80;;
4521;SDS011;2273;48.464;11.926;2022-09-09T10:28:27;5.40;;;4.23;;
4521;SDS011;2273;48.464;11.926;2022-09-09T10:31:15;6.67;;;4.30;;
4521;SDS011;2273;48.464;11.926;2022-09-09T10:33:50;5.43;;;3.87;;
4521;SDS011;2273;48.464;11.926;2022-09-09T10:36:19;6.40;;;4.63;;
4521;SDS011;2273;48.464;11.926;2022-09-09T10:38:53;7.03;;;5.03;;
4521;SDS011;2273;48.464;11.926;2022-09-09T10:44:22;8.40;;;4.00;;
4521;SDS011;2273;48.464;11.926;2022-09-09T10:55:25;8.13;;;4.70;;
4521;SDS011;2273;48.464;11.926;2022-09-09T10:57:53;5.80;;;4.37;;
4521;SDS011;2273;48.464;11.926;2022-09-09T11:01:02;6.40;;;4.40;;
4521;SDS011;2273;48.464;11.926;2022-09-09T11:03:15;9.83;;;4.30;;
4521;SDS011;2273;48.464;11.926;2022-09-09T11:05:45;5.27;;;4.00;;
4521;SDS011;2273;48.464;11.926;2022-09-09T11:08:25;11.93;;;5.00;;
4521;SDS011;2273;48.464;11.926;2022-09-09T11:13:30;4.60;;;3.80;;
4521;SDS011;2273;48.464;11.926;2022-09-09T11:16:50;4.40;;;3.60;;
4521;SDS011;2273;48.464;11.926;2022-09-09T11:18:58;6.07;;;4.17;;
4521;SDS011;2273;48.464;11.926;2022-09-09T11:21:29;5.67;;;4.20;;
4521;SDS011;2273;48.464;11.926;2022-09-09T11:24:02;4.93;;;3.70;;
4521;SDS011;2273;48.464;11.926;2022-09-09T11:26:41;6.70;;;3.80;;
4521;SDS011;2273;48.464;11.926;2022-09-09T11:29:36;11.60;;;3.70;;
4521;SDS011;2273;48.464;11.926;2022-09-09T11:35:55;6.00;;;3.63;;
4521;SDS011;2273;48.464;11.926;2022-09-09T11:40:24;4.33;;;2.80;;
4521;SDS011;2273;48.464;11.926;2022-09-09T11:43:08;13.17;;;3.83;;
4521;SDS011;2273;48.464;11.926;2022-09-09T11:45:37;5.37;;;3.30;;
4521;SDS011;2273;48.464;11.926;2022-09-09T11:48:04;5.70;;;3.20;;
4521;SDS011;2273;48.464;11.926;2022-09-09T11:50:36;7.37;;;3.80;;
4521;SDS011;2273;48.464;11.926;2022-09-09T11:53:03;4.67;;;3.10;;
4521;SDS011;2273;48.464;11.926;2022-09-09T11:55:39;4.47;;;2.87;;
4521;SDS011;2273;48.464;11.926;2022-09-09T12:00:40;5.80;;;3.00;;
4521;SDS011;2273;48.464;11.926;2022-09-09T12:06:11;7.90;;;2.63;;
4521;SDS011;2273;48.464;11.926;2022-09-09T12:08:52;7.73;;;2.97;;
4521;SDS011;2273;48.464;11.926;2022-09-09T12:11:27;7.10;;;2.50;;
4521;SDS011;2273;48.464;11.926;2022-09-09T12:14:02;4.77;;;2.43;;
4521;SDS011;2273;48.464;11.926;2022-09-09T12:21:49;3.70;;;2.40;;
4521;SDS011;2273;48.464;11.926;2022-09-09T12:32:36;2.53;;;1.80;;
4521;SDS011;2273;48.464;11.926;2022-09-09T12:35:04;4.87;;;2.63;;
4521;SDS011;2273;48.464;11.926;2022-09-09T12:37:44;4.23;;;1.73;;
4521;SDS011;2273;48.464;11.926;2022-09-09T12:42:45;5.23;;;2.20;;
4521;SDS011;2273;48.464;11.926;2022-09-09T12:45:18;3.73;;;1.90;;
4521;SDS011;2273;48.464;11.926;2022-09-09T12:48:07;2.43;;;1.60;;
4521;SDS011;2273;48.464;11.926;2022-09-09T12:50:33;6.97;;;1.83;;
4521;SDS011;2273;48.464;11.926;2022-09-09T12:55:58;3.93;;;1.50;;
4521;SDS011;2273;48.464;11.926;2022-09-09T12:58:25;2.63;;;1.47;;
4521;SDS011;2273;48.464;11.926;2022-09-09T13:00:54;1.90;;;1.23;;
4521;SDS011;2273;48.464;11.926;2022-09-09T13:03:23;2.33;;;1.30;;
4521;SDS011;2273;48.464;11.926;2022-09-09T13:05:50;4.13;;;1.10;;
4521;SDS011;2273;48.464;11.926;2022-09-09T13:08:16;3.53;;;1.47;;
4521;SDS011;2273;48.464;11.926;2022-09-09T13:13:35;3.20;;;1.20;;
4521;SDS011;2273;48.464;11.926;2022-09-09T13:16:01;2.60;;;1.30;;
4521;SDS011;2273;48.464;11.926;2022-09-09T13:18:32;2.77;;;1.30;;
4521;SDS011;2273;48.464;11.926;2022-09-09T13:20:59;3.60;;;1.40;;
4521;SDS011;2273;48.464;11.926;2022-09-09T13:23:36;1.93;;;1.20;;
4521;SDS011;2273;48.464;11.926;2022-09-09T13:26:03;4.90;;;1.60;;
4521;SDS011;2273;48.464;11.926;2022-09-09T13:28:51;3.17;;;1.50;;
4521;SDS011;2273;48.464;11.926;2022-09-09T13:31:23;1.80;;;1.40;;
4521;SDS011;2273;48.464;11.926;2022-09-09T13:33:49;1.60;;;1.10;;
4521;SDS011;2273;48.464;11.926;2022-09-09T13:36:15;4.50;;;1.20;;
4521;SDS011;2273;48.464;11.926;2022-09-09T13:41:20;5.33;;;1.37;;
4521;SDS011;2273;48.464;11.926;2022-09-09T13:43:47;7.47;;;1.30;;
4521;SDS011;2273;48.464;11.926;2022-09-09T13:51:40;1.73;;;0.97;;
4521;SDS011;2273;48.464;11.926;2022-09-09T13:54:11;4.17;;;1.30;;
4521;SDS011;2273;48.464;11.926;2022-09-09T13:56:38;3.53;;;1.47;;
4521;SDS011;2273;48.464;11.926;2022-09-09T13:59:08;1.90;;;1.20;;
4521;SDS011;2273;48.464;11.926;2022-09-09T14:01:39;1.43;;;0.97;;
4521;SDS011;2273;48.464;11.926;2022-09-09T14:04:09;1.97;;;1.50;;
4521;SDS011;2273;48.464;11.926;2022-09-09T14:06:35;3.23;;;1.30;;
4521;SDS011;2273;48.464;11.926;2022-09-09T14:09:07;2.60;;;1.10;;
4521;SDS011;2273;48.464;11.926;2022-09-09T14:11:35;1.37;;;1.00;;
4521;SDS011;2273;48.464;11.926;2022-09-09T14:14:01;3.10;;;1.00;;
4521;SDS011;2273;48.464;11.926;2022-09-09T14:16:26;1.60;;;1.13;;
4521;SDS011;2273;48.464;11.926;2022-09-09T14:18:53;3.17;;;1.13;;
4521;SDS011;2273;48.464;11.926;2022-09-09T14:21:18;2.40;;;1.00;;
4521;SDS011;2273;48.464;11.926;2022-09-09T14:23:44;2.20;;;1.20;;
4521;SDS011;2273;48.464;11.926;2022-09-09T14:26:09;3.50;;;1.13;;
4521;SDS011;2273;48.464;11.926;2022-09-09T14:28:35;3.07;;;1.20;;
4521;SDS011;2273;48.464;11.926;2022-09-09T14:31:02;2.03;;;1.10;;
4521;SDS011;2273;48.464;11.926;2022-09-09T14:33:28;1.90;;;1.07;;
4521;SDS011;2273;48.464;11.926;2022-09-09T14:35:58;1.50;;;1.00;;
4521;SDS011;2273;48.464;11.926;2022-09-09T14:38:24;2.23;;;1.43;;
4521;SDS011;2273;48.464;11.926;2022-09-09T14:40:50;1.87;;;1.10;;
4521;SDS011;2273;48.464;11.926;2022-09-09T14:43:16;2.67;;;1.50;;
4521;SDS011;2273;48.464;11.926;2022-09-09T14:45:42;2.10;;;1.17;;
4521;SDS011;2273;48.464;11.926;2022-09-09T14:48:08;2.70;;;1.60;;
4521;SDS011;2273;48.464;11.926;2022-09-09T14:50:34;3.27;;;1.20;;
4521;SDS011;2273;48.464;11.926;2022-09-09T14:53:01;4.70;;;1.33;;
4521;SDS011;2273;48.464;11.926;2022-09-09T14:55:27;1.77;;;0.90;;
4521;SDS011;2273;48.464;11.926;2022-09-09T14:57:54;1.93;;;0.90;;
4521;SDS011;2273;48.464;11.926;2022-09-09T15:00:19;2.50;;;1.50;;
4521;SDS011;2273;48.464;11.926;2022-09-09T15:02:45;3.50;;;1.40;;
4521;SDS011;2273;48.464;11.926;2022-09-09T15:05:10;2.73;;;1.10;;
4521;SDS011;2273;48.464;11.926;2022-09-09T15:07:36;3.73;;;1.30;;
4521;SDS011;2273;48.464;11.926;2022-09-09T15:10:02;2.37;;;1.23;;
4521;SDS011;2273;48.464;11.926;2022-09-09T15:12:28;10.50;;;1.30;;
4521;SDS011;2273;48.464;11.926;2022-09-09T15:14:53;2.70;;;0.90;;
4521;SDS011;2273;48.464;11.926;2022-09-09T15:17:20;1.60;;;1.10;;
4521;SDS011;2273;48.464;11.926;2022-09-09T15:19:45;1.33;;;1.13;;
4521;SDS011;2273;48.464;11.926;2022-09-09T15:22:11;1.37;;;1.03;;
4521;SDS011;2273;48.464;11.926;2022-09-09T15:24:36;2.03;;;1.20;;
4521;SDS011;2273;48.464;11.926;2022-09-09T15:27:02;8.43;;;1.30;;
4521;SDS011;2273;48.464;11.926;2022-09-09T15:29:28;5.47;;;1.10;;
4521;SDS011;2273;48.464;11.926;2022-09-09T15:31:54;3.13;;;1.20;;
4521;SDS011;2273;48.464;11.926;2022-09-09T15:34:20;3.30;;;1.10;;
4521;SDS011;2273;48.464;11.926;2022-09-09T15:36:46;4.20;;;1.20;;
4521;SDS011;2273;48.464;11.926;2022-09-09T15:39:12;1.23;;;0.90;;
4521;SDS011;2273;48.464;11.926;2022-09-09T15:41:46;3.23;;;1.17;;
4521;SDS011;2273;48.464;11.926;2022-09-09T15:44:13;4.93;;;1.47;;
4521;SDS011;2273;48.464;11.926;2022-09-09T15:46:40;2.23;;;1.30;;
4521;SDS011;2273;48.464;11.926;2022-09-09T15:51:39;3.23;;;1.20;;
4521;SDS011;2273;48.464;11.926;2022-09-09T15:54:13;2.43;;;1.20;;
4521;SDS011;2273;48.464;11.926;2022-09-09T15:56:42;2.70;;;1.20;;
4521;SDS011;2273;48.464;11.926;2022-09-09T15:59:08;2.33;;;1.07;;
4521;SDS011;2273;48.464;11.926;2022-09-09T16:01:35;4.40;;;1.40;;
4521;SDS011;2273;48.464;11.926;2022-09-09T16:04:00;5.30;;;1.20;;
4521;SDS011;2273;48.464;11.926;2022-09-09T16:06:26;2.23;;;1.20;;
4521;SDS011;2273;48.464;11.926;2022-09-09T16:08:53;1.20;;;0.93;;
4521;SDS011;2273;48.464;11.926;2022-09-09T16:11:24;2.47;;;1.40;;
4521;SDS011;2273;48.464;11.926;2022-09-09T16:13:52;2.73;;;1.30;;
4521;SDS011;2273;48.464;11.926;2022-09-09T16:16:19;1.90;;;1.20;;
4521;SDS011;2273;48.464;11.926;2022-09-09T16:18:48;5.50;;;1.10;;
4521;SDS011;2273;48.464;11.926;2022-09-09T16:21:18;2.10;;;1.17;;
4521;SDS011;2273;48.464;11.926;2022-09-09T16:23:49;2.70;;;1.20;;
4521;SDS011;2273;48.464;11.926;2022-09-09T16:26:16;1.73;;;1.10;;
4521;SDS011;2273;48.464;11.926;2022-09-09T16:28:42;2.37;;;1.23;;
4521;SDS011;2273;48.464;11.926;2022-09-09T16:31:09;3.30;;;1.40;;
4521;SDS011;2273;48.464;11.926;2022-09-09T16:33:36;2.63;;;1.37;;
4521;SDS011;2273;48.464;11.926;2022-09-09T16:36:12;2.17;;;1.40;;
4521;SDS011;2273;48.464;11.926;2022-09-09T16:38:43;2.50;;;1.17;;
4521;SDS011;2273;48.464;11.926;2022-09-09T16:41:09;3.90;;;1.30;;
4521;SDS011;2273;48.464;11.926;2022-09-09T16:43:35;5.53;;;1.50;;
4521;SDS011;2273;48.464;11.926;2022-09-09T16:46:02;2.07;;;1.40;;
4521;SDS011;2273;48.464;11.926;2022-09-09T16:48:33;3.43;;;1.50;;
4521;SDS011;2273;48.464;11.926;2022-09-09T16:51:03;3.87;;;1.53;;
4521;SDS011;2273;48.464;11.926;2022-09-09T16:53:31;2.70;;;1.17;;
4521;SDS011;2273;48.464;11.926;2022-09-09T16:55:57;4.80;;;1.50;;
4521;SDS011;2273;48.464;11.926;2022-09-09T16:58:22;2.07;;;1.40;;
4521;SDS011;2273;48.464;11.926;2022-09-09T17:00:48;5.13;;;1.87;;
4521;SDS011;2273;48.464;11.926;2022-09-09T17:03:14;2.47;;;1.37;;
4521;SDS011;2273;48.464;11.926;2022-09-09T17:05:40;2.70;;;1.70;;
4521;SDS011;2273;48.464;11.926;2022-09-09T17:08:06;3.57;;;1.70;;
4521;SDS011;2273;48.464;11.926;2022-09-09T17:10:32;1.97;;;1.47;;
4521;SDS011;2273;48.464;11.926;2022-09-09T17:12:57;2.77;;;1.60;;
4521;SDS011;2273;48.464;11.926;2022-09-09T17:15:23;3.13;;;1.90;;
4521;SDS011;2273;48.464;11.926;2022-09-09T17:17:48;13.70;;;1.43;;
4521;SDS011;2273;48.464;11.926;2022-09-09T17:20:15;7.30;;;2.07;;
4521;SDS011;2273;48.464;11.926;2022-09-09T17:22:41;2.03;;;1.57;;
4521;SDS011;2273;48.464;11.926;2022-09-09T17:25:07;3.87;;;1.50;;